Terminal Aerodrome Forecast
Issued by NWS Sterling, VA

Home | Current Version | Previous Version | Text Only | Print | Product List | Glossary On
Versions: 1 2 3 4 5 6 7 8 9 10 11 12 13 14 15 16 17 18 19 20 21 22 23
758
FTUS41 KLWX 122335
TAFBWI
TAF
KBWI 122335Z 1300/1406 16004KT 5SM -SHSN SCT010 BKN030
      TEMPO 1301/1304 2SM -SHSN BKN020
     FM130500 27007KT P6SM SCT045 BKN050
     FM130800 29015G32KT P6SM FEW050 SCT060
     FM131000 30019G39KT P6SM FEW080 SCT100
     FM131900 30020G32KT P6SM SCT040 BKN060=

USA.gov is the U.S. government's official web portal to all federal, state and local government web resources and services.